CW7171 Weather Reports


Display with metric or nautical units.
time (UTC)temp
F
wind
direction
speed
MPH
gust
MPH
rain 1hr
in
rain 24hr
in
rain mn
in
humidity
%
barometer
mb
20180921002604 38 5 1.0 3.0 0.00 0.01 0.00 86 994.1
20180921002103 38 5 0.0 5.0 0.00 0.01 0.00 86 994.0
20180921001604 38 5 0.0 1.0 0.00 0.01 0.00 85 993.9
20180921001104 39 5 0.0 1.0 0.00 0.01 0.00 84 993.9
20180921000604 39 5 0.0 1.0 0.00 0.01 0.00 84 993.8
20180921000104 39 5 1.0 3.0 0.00 0.01 0.00 84 993.9
20180920235604 40 5 0.0 0.0 0.00 0.01 0.00 84 993.9
20180920235104 39 5 0.0 3.0 0.00 0.01 0.00 84 994.1
20180920234604 40 5 0.0 1.0 0.00 0.01 0.00 84 994.2
20180920234103 40 5 0.0 3.0 0.00 0.01 0.00 83 994.1
20180920233604 41 5 0.0 2.0 0.00 0.01 0.00 83 994.1
20180920233104 41 5 0.0 3.0 0.00 0.01 0.00 83 994.0
20180920232604 41 5 0.0 3.0 0.00 0.01 0.00 83 994.0
20180920232103 41 5 0.0 2.0 0.00 0.01 0.00 84 993.9
20180920231603 40 5 1.0 5.0 0.00 0.01 0.00 86 993.9
20180920231104 39 5 1.0 3.0 0.00 0.01 0.00 87 993.8
20180920230604 39 5 0.0 1.0 0.00 0.01 0.00 86 993.7
20180920230104 39 5 0.0 2.0 0.00 0.01 0.00 86 993.6
20180920225603 39 5 1.0 2.0 0.00 0.01 0.00 85 993.5
20180920225104 39 5 0.0 1.0 0.00 0.01 0.00 84 993.5
20180920224603 40 5 0.0 1.0 0.00 0.01 0.00 83 993.4
20180920224104 40 5 0.0 0.0 0.00 0.01 0.00 83 993.3
20180920223604 41 5 0.0 1.0 0.00 0.01 0.00 82 993.3
20180920223104 41 5 0.0 1.0 0.00 0.01 0.00 82 993.2
20180920222604 41 5 0.0 2.0 0.00 0.01 0.00 81 993.2
20180920222104 42 5 0.0 1.0 0.00 0.01 0.00 80 993.1
20180920221605 43 5 0.0 1.0 0.00 0.01 0.00 79 993.1
20180920221106 44 5 0.0 1.0 0.00 0.01 0.00 78 993.0
20180920220604 44 5 0.0 3.0 0.00 0.01 0.00 77 993.1
20180920220104 45 5 0.0 3.0 0.00 0.01 0.00 77 993.1
20180920215604 45 5 1.0 5.0 0.00 0.01 0.01 75 993.0
20180920215104 45 5 0.0 3.0 0.00 0.01 0.01 75 993.0
20180920214604 46 5 1.0 5.0 0.00 0.01 0.01 74 993.0
20180920214104 46 5 2.0 5.0 0.00 0.01 0.01 73 992.9
20180920213604 46 5 2.0 5.0 0.00 0.01 0.01 73 992.8
20180920213104 46 5 2.0 6.0 0.00 0.01 0.01 73 992.8
20180920212615 46 5 3.0 8.0 0.00 0.01 0.01 73 992.8
20180920212104 46 5 4.0 9.0 0.00 0.01 0.01 72 992.7
20180920211604 46 5 5.0 10.0 0.00 0.01 0.01 72 992.6
20180920211104 46 5 6.0 12.0 0.00 0.01 0.01 72 992.6
20180920210604 46 5 4.0 9.0 0.00 0.01 0.01 72 992.5
20180920210104 46 5 3.0 12.0 0.00 0.01 0.01 73 992.5
20180920205604 46 5 5.0 8.0 0.00 0.01 0.01 73 992.4
20180920205104 46 5 7.0 13.0 0.00 0.01 0.01 73 992.4
20180920204605 46 5 2.0 14.0 0.00 0.01 0.01 74 992.4
20180920204104 46 5 2.0 7.0 0.00 0.01 0.01 73 992.3
20180920203604 46 5 5.0 12.0 0.00 0.01 0.01 74 992.2
20180920203104 46 5 3.0 10.0 0.00 0.01 0.01 74 992.3
20180920202604 46 5 2.0 10.0 0.00 0.01 0.01 73 992.3
20180920202104 46 5 2.0 8.0 0.00 0.01 0.01 73 992.2
20180920201605 47 5 3.0 6.0 0.00 0.01 0.01 73 992.2
20180920201118 47 5 4.0 9.0 0.00 0.01 0.01 72 992.2
20180920200603 47 5 6.0 10.0 0.00 0.01 0.01 72 992.2
20180920200104 47 5 6.0 14.0 0.00 0.01 0.01 72 992.1
20180920195605 47 5 5.0 8.0 0.00 0.01 0.01 72 992.0
20180920195103 47 5 5.0 5.0 0.00 0.01 0.01 72 991.8
20180920194603 47 5 5.0 5.0 0.00 0.01 0.01 72 991.8
20180920194104 47 5 6.0 10.0 0.00 0.02 0.01 72 991.8
20180920193604 47 5 6.0 10.0 0.00 0.02 0.01 71 991.8
20180920193104 47 5 4.0 9.0 0.00 0.02 0.01 72 991.8
20180920192604 47 5 7.0 13.0 0.00 0.02 0.01 71 991.8
20180920192103 47 5 6.0 8.0 0.00 0.02 0.01 71 991.8
20180920191605 47 5 3.0 7.0 0.00 0.02 0.01 71 991.8
20180920191104 48 5 1.0 1.0 0.00 0.02 0.01 70 991.6
20180920190604 48 5 5.0 14.0 0.00 0.02 0.01 70 991.5
20180920190105 48 5 5.0 10.0 0.00 0.02 0.01 70 991.4
20180920185604 48 5 9.0 16.0 0.00 0.02 0.01 70 991.4
20180920185104 48 5 4.0 9.0 0.00 0.02 0.01 70 991.4
20180920184604 48 5 4.0 9.0 0.00 0.02 0.01 69 991.3
20180920184104 48 5 3.0 8.0 0.00 0.02 0.01 69 991.3
20180920183603 48 5 4.0 6.0 0.00 0.02 0.01 69 991.2
20180920183104 48 5 6.0 10.0 0.00 0.02 0.01 68 991.1
20180920182604 48 5 8.0 12.0 0.00 0.02 0.01 68 991.1
20180920182104 48 5 10.0 12.0 0.00 0.02 0.01 67 991.1
20180920181604 48 5 5.0 13.0 0.00 0.02 0.01 67 991.0
20180920181104 49 5 7.0 16.0 0.00 0.02 0.01 67 991.2
20180920180605 49 5 3.0 9.0 0.00 0.02 0.01 66 991.2
20180920180104 49 5 5.0 8.0 0.00 0.02 0.01 66 991.2
20180920175604 49 5 5.0 16.0 0.00 0.02 0.01 65 991.1
20180920175104 49 5 4.0 14.0 0.00 0.02 0.01 65 991.2
20180920174604 49 5 3.0 9.0 0.00 0.02 0.01 64 991.2
20180920174104 49 5 8.0 17.0 0.00 0.02 0.01 64 991.0
20180920173604 49 5 6.0 12.0 0.00 0.02 0.01 63 991.0
20180920173104 50 5 5.0 9.0 0.00 0.02 0.01 64 990.9
20180920172604 50 5 9.0 15.0 0.00 0.02 0.01 63 990.9
20180920172104 50 5 5.0 15.0 0.00 0.02 0.01 62 990.8
20180920171604 50 5 12.0 12.0 0.00 0.02 0.01 62 990.7
20180920171104 50 5 7.0 17.0 0.00 0.02 0.01 62 990.7
20180920170603 50 5 6.0 13.0 0.00 0.02 0.01 63 990.8
20180920170104 50 5 4.0 6.0 0.00 0.02 0.01 63 990.7
20180920165604 50 5 2.0 6.0 0.00 0.02 0.01 64 990.6
20180920165104 51 5 5.0 12.0 0.00 0.02 0.01 63 990.5
20180920164604 51 5 9.0 9.0 0.00 0.02 0.01 63 990.5
20180920164104 51 5 2.0 1.0 0.00 0.02 0.01 63 990.4
20180920163605 51 5 2.0 5.0 0.00 0.02 0.01 63 990.4
20180920163104 51 5 5.0 9.0 0.00 0.02 0.01 63 990.5
20180920162604 51 5 1.0 6.0 0.00 0.02 0.01 63 990.6
20180920162104 51 5 1.0 6.0 0.00 0.02 0.01 63 990.6
20180920161604 51 5 2.0 3.0 0.00 0.02 0.01 63 990.5
20180920161104 51 5 2.0 3.0 0.00 0.02 0.01 63 990.5
20180920160604 51 5 2.0 3.0 0.00 0.02 0.01 62 990.4
20180920160104 52 5 6.0 7.0 0.00 0.02 0.01 61 990.4
20180920155604 52 5 5.0 8.0 0.00 0.02 0.01 61 990.4
20180920155108 52 5 6.0 12.0 0.00 0.02 0.01 62 990.4
20180920154603 52 5 6.0 14.0 0.00 0.02 0.01 61 990.3
20180920154104 52 5 3.0 7.0 0.00 0.02 0.01 62 990.2
20180920153604 52 5 7.0 13.0 0.00 0.02 0.01 61 990.1
20180920153104 52 5 6.0 7.0 0.00 0.02 0.01 62 990.1
20180920152604 52 5 6.0 8.0 0.00 0.02 0.01 62 990.1
20180920152104 52 5 6.0 8.0 0.00 0.02 0.01 61 990.1
20180920151604 52 5 6.0 12.0 0.00 0.02 0.01 61 990.1
20180920151104 52 5 5.0 12.0 0.00 0.02 0.01 62 990.1
20180920150604 53 5 6.0 10.0 0.00 0.02 0.01 61 990.2
20180920150104 52 5 5.0 12.0 0.00 0.02 0.01 63 990.4
20180920145604 52 5 9.0 10.0 0.00 0.02 0.01 64 990.5
20180920145104 51 5 2.0 3.0 0.00 0.02 0.01 65 990.6
20180920144603 51 5 2.0 3.0 0.00 0.02 0.01 65 990.6
20180920144104 51 5 4.0 9.0 0.00 0.02 0.01 66 990.6
20180920143604 51 5 6.0 7.0 0.00 0.02 0.01 66 990.5
20180920143104 51 5 5.0 9.0 0.00 0.02 0.01 66 990.5
20180920142606 51 5 2.0 5.0 0.00 0.02 0.01 66 990.5
20180920142104 51 5 2.0 6.0 0.00 0.02 0.01 66 990.4
20180920141604 51 5 4.0 5.0 0.00 0.02 0.01 66 990.4
20180920141104 51 5 4.0 5.0 0.00 0.02 0.01 65 990.4
20180920140603 51 5 2.0 9.0 0.00 0.02 0.01 65 990.3
20180920140103 51 5 5.0 9.0 0.00 0.02 0.01 65 990.3
20180920135604 51 5 5.0 12.0 0.00 0.02 0.01 65 990.3
20180920135104 51 5 5.0 15.0 0.00 0.02 0.01 66 990.3
20180920134604 51 5 3.0 10.0 0.00 0.02 0.01 67 990.4
20180920134104 51 5 3.0 8.0 0.00 0.02 0.01 68 990.3
20180920133604 51 5 2.0 5.0 0.00 0.02 0.01 69 990.3
20180920133104 51 5 1.0 3.0 0.00 0.02 0.01 72 990.4
20180920132604 51 5 0.0 2.0 0.00 0.02 0.01 72 990.4
20180920132104 50 5 2.0 3.0 0.00 0.02 0.01 72 990.4
20180920131604 50 5 2.0 8.0 0.00 0.02 0.01 72 990.4
20180920131104 50 5 3.0 10.0 0.00 0.02 0.01 72 990.4
20180920130604 50 5 3.0 8.0 0.00 0.02 0.01 73 990.4
20180920130105 50 5 2.0 6.0 0.00 0.02 0.01 74 990.4
20180920125603 50 5 5.0 8.0 0.00 0.02 0.01 73 990.4
20180920125104 50 5 6.0 9.0 0.00 0.02 0.01 72 990.6
20180920124604 51 5 8.0 8.0 0.00 0.02 0.01 71 990.7
20180920124104 51 5 6.0 9.0 0.00 0.02 0.01 70 990.6
20180920123605 51 5 7.0 16.0 0.00 0.02 0.01 70 990.6
20180920123105 52 5 6.0 12.0 0.00 0.02 0.01 69 990.6
20180920122604 52 5 4.0 9.0 0.00 0.02 0.01 68 990.4
20180920122104 52 5 5.0 12.0 0.00 0.02 0.01 67 990.3
20180920121604 52 5 5.0 12.0 0.00 0.02 0.01 67 990.1
20180920121105 52 5 4.0 12.0 0.00 0.02 0.01 68 990.1
20180920120605 52 5 5.0 10.0 0.00 0.02 0.01 67 990.0
20180920120104 52 5 6.0 9.0 0.00 0.02 0.01 67 989.8
20180920115604 52 5 7.0 12.0 0.00 0.02 0.01 65 989.7
20180920115125 54 5 7.0 12.0 0.00 0.02 0.01 63 989.7
20180920114739 54 5 9.0 13.0 0.00 0.02 0.01 62 989.5
20180920114104 55 5 9.0 15.0 0.00 0.02 0.01 58 989.3
20180920113604 55 5 5.0 8.0 0.00 0.02 0.01 54 989.1
20180920113103 56 5 5.0 16.0 0.00 0.02 0.01 54 988.9
20180920112608 56 5 10.0 16.0 0.00 0.02 0.01 54 988.8
20180920112104 56 5 9.0 15.0 0.00 0.02 0.01 54 988.8
20180920111604 56 5 5.0 15.0 0.00 0.02 0.01 57 988.7
20180920111104 56 5 5.0 14.0 0.00 0.02 0.01 57 988.7
20180920110605 56 5 10.0 14.0 0.00 0.02 0.01 56 988.6
20180920110104 55 5 6.0 12.0 0.00 0.02 0.01 58 988.7
20180920105604 55 5 4.0 9.0 0.00 0.02 0.01 58 988.5
20180920105104 55 5 3.0 9.0 0.00 0.02 0.01 58 988.6
20180920104604 55 5 5.0 9.0 0.00 0.02 0.01 58 988.6
20180920104103 55 5 6.0 12.0 0.00 0.02 0.01 58 988.5
20180920103604 55 5 4.0 9.0 0.00 0.02 0.01 59 988.5
20180920103104 55 5 2.0 6.0 0.00 0.02 0.01 59 988.5
20180920102604 55 5 2.0 2.0 0.00 0.02 0.01 58 988.6
20180920102104 55 5 3.0 12.0 0.00 0.02 0.01 58 988.6
20180920101604 55 5 8.0 20.0 0.00 0.02 0.01 58 988.5
20180920101104 55 5 7.0 14.0 0.00 0.02 0.01 59 988.4
20180920100604 55 5 7.0 16.0 0.00 0.02 0.01 60 988.3
20180920100104 55 5 7.0 12.0 0.00 0.02 0.01 60 988.2
20180920095605 55 5 6.0 10.0 0.00 0.02 0.01 61 988.2
20180920095104 55 5 5.0 5.0 0.00 0.02 0.01 62 988.2
20180920094604 56 5 2.0 5.0 0.00 0.02 0.01 60 988.1
20180920094103 55 5 9.0 20.0 0.00 0.02 0.01 61 988.1
20180920093604 55 5 7.0 15.0 0.00 0.02 0.01 60 988.0
20180920093105 55 5 5.0 12.0 0.00 0.02 0.01 62 987.9
20180920092605 56 5 7.0 16.0 0.00 0.02 0.01 62 987.8
20180920092106 56 5 3.0 9.0 0.00 0.02 0.01 62 987.9
20180920091608 57 5 5.0 13.0 0.00 0.02 0.01 61 987.8
20180920091104 57 5 10.0 10.0 0.00 0.02 0.01 62 987.7
20180920090603 56 5 8.0 15.0 0.00 0.02 0.01 62 987.7
20180920090106 56 5 7.0 15.0 0.00 0.02 0.01 63 987.5
20180920085609 56 5 7.0 13.0 0.00 0.02 0.01 62 987.6
20180920085103 56 5 5.0 12.0 0.00 0.02 0.01 63 987.5
20180920084604 56 5 6.0 12.0 0.00 0.02 0.01 65 987.5
20180920084104 56 5 3.0 8.0 0.00 0.02 0.01 65 987.4
20180920083604 56 5 7.0 9.0 0.00 0.02 0.01 66 987.4
20180920083104 56 5 5.0 12.0 0.00 0.02 0.01 67 987.4
20180920082603 56 5 6.0 13.0 0.00 0.02 0.01 66 987.4
20180920082103 56 5 9.0 16.0 0.00 0.02 0.01 68 987.2
20180920081604 56 5 5.0 17.0 0.00 0.02 0.01 68 987.3
20180920081103 56 5 5.0 13.0 0.00 0.02 0.01 70 987.3
20180920080604 56 5 6.0 12.0 0.00 0.02 0.01 70 987.2
20180920080104 56 5 5.0 10.0 0.00 0.02 0.01 72 987.3
20180920075604 56 5 7.0 10.0 0.00 0.02 0.01 75 987.2
20180920075103 56 5 1.0 12.0 0.00 0.02 0.01 76 987.2
20180920074604 56 5 6.0 14.0 0.00 0.02 0.01 76 987.1
20180920074104 56 5 5.0 14.0 0.00 0.02 0.01 76 986.9
20180920073604 56 5 5.0 12.0 0.00 0.02 0.01 77 987.0
20180920073103 56 5 6.0 12.0 0.00 0.02 0.01 78 986.8
20180920072604 56 5 4.0 10.0 0.00 0.02 0.01 80 986.8
20180920072104 56 5 5.0 10.0 0.00 0.02 0.01 80 986.8
20180920071604 55 5 5.0 8.0 0.00 0.02 0.01 82 986.7
20180920071104 55 5 3.0 13.0 0.00 0.02 0.01 82 986.7
20180920070604 55 5 7.0 14.0 0.00 0.02 0.01 83 986.7
20180920070104 55 5 5.0 14.0 0.00 0.02 0.01 83 986.8
20180920065604 55 5 5.0 13.0 0.00 0.02 0.01 85 986.6
20180920065104 55 5 5.0 16.0 0.00 0.02 0.01 85 986.6
20180920064604 54 5 9.0 12.0 0.00 0.02 0.01 86 986.5
20180920064103 54 5 7.0 7.0 0.00 0.02 0.01 87 986.7
20180920063604 54 5 4.0 12.0 0.00 0.02 0.01 87 986.7
20180920063103 54 5 6.0 12.0 0.00 0.02 0.01 88 986.7
20180920062604 54 5 4.0 9.0 0.00 0.02 0.01 88 986.6
20180920062104 54 5 7.0 13.0 0.00 0.02 0.01 88 986.5
20180920061604 54 5 3.0 8.0 0.00 0.02 0.01 89 986.5
20180920061104 54 5 8.0 12.0 0.00 0.02 0.01 88 986.5
20180920060604 54 5 3.0 12.0 0.00 0.02 0.01 89 986.4
20180920060104 54 5 6.0 9.0 0.00 0.02 0.01 89 986.4
20180920055603 54 5 5.0 14.0 0.00 0.02 0.01 89 986.4
20180920055104 54 5 6.0 13.0 0.00 0.02 0.01 89 986.3
20180920054603 54 5 7.0 13.0 0.00 0.02 0.01 89 986.3
20180920054104 54 5 6.0 15.0 0.00 0.02 0.01 90 986.2
20180920053604 54 5 4.0 10.0 0.00 0.02 0.01 90 986.4
20180920053103 54 5 7.0 10.0 0.00 0.02 0.01 90 986.4
20180920052605 54 5 3.0 3.0 0.00 0.02 0.01 90 986.5
20180920052104 54 5 0.0 9.0 0.00 0.02 0.01 90 986.4
20180920051604 54 5 4.0 9.0 0.00 0.02 0.01 90 986.4
20180920051104 54 5 4.0 12.0 0.00 0.02 0.01 90 986.5
20180920050604 54 5 4.0 10.0 0.00 0.02 0.01 90 986.6
20180920050104 53 5 3.0 12.0 0.00 0.02 0.01 90 986.7
20180920045604 53 5 3.0 10.0 0.00 0.02 0.01 90 986.7
20180920045104 54 5 6.0 10.0 0.00 0.02 0.01 90 986.7
20180920044604 54 5 3.0 10.0 0.00 0.02 0.01 90 986.7
20180920044104 53 5 6.0 12.0 0.00 0.02 0.01 90 986.7
20180920043604 54 5 2.0 9.0 0.00 0.02 0.01 90 986.7
20180920043104 54 5 5.0 13.0 0.00 0.02 0.01 90 986.7
20180920042604 53 5 6.0 13.0 0.00 0.02 0.01 90 986.9
20180920042104 53 5 6.0 13.0 0.00 0.02 0.01 91 986.9
20180920041604 53 5 4.0 10.0 0.00 0.02 0.01 91 986.9
20180920041104 53 5 4.0 7.0 0.00 0.02 0.01 91 986.9
20180920040604 53 5 3.0 7.0 0.00 0.02 0.01 91 987.0
20180920040103 53 5 4.0 9.0 0.00 0.02 0.01 91 987.2
20180920035604 53 5 3.0 12.0 0.00 0.02 0.01 91 987.2
20180920035105 53 5 5.0 10.0 0.00 0.02 0.01 91 987.3
20180920034604 53 5 3.0 9.0 0.00 0.02 0.01 91 987.3
20180920034104 53 5 2.0 7.0 0.00 0.02 0.01 91 987.3
20180920033603 53 5 3.0 9.0 0.00 0.02 0.01 91 987.6
20180920033103 53 5 5.0 12.0 0.00 0.03 0.01 91 987.8
20180920032604 53 5 3.0 5.0 0.00 0.03 0.01 91 987.9
20180920032104 53 5 2.0 10.0 0.00 0.03 0.01 91 987.9
20180920031604 53 5 2.0 6.0 0.00 0.04 0.01 91 988.1
20180920031104 53 5 4.0 8.0 0.00 0.04 0.01 91 988.1
20180920030604 53 5 4.0 6.0 0.00 0.05 0.01 91 988.3
20180920030103 53 5 2.0 6.0 0.00 0.05 0.01 92 988.5
20180920025603 53 5 2.0 3.0 0.00 0.05 0.01 93 988.6
20180920025104 53 5 4.0 12.0 0.00 0.05 0.01 94 988.5
20180920024604 52 5 4.0 12.0 0.00 0.05 0.01 94 988.5
20180920024104 52 5 3.0 8.0 0.00 0.05 0.01 95 988.4
20180920023604 52 5 3.0 7.0 0.00 0.05 0.01 95 988.6
20180920023104 52 5 3.0 5.0 0.00 0.05 0.01 95 988.9
20180920022604 52 5 0.0 5.0 0.00 0.05 0.01 95 989.5
20180920022104 51 5 1.0 5.0 0.00 0.05 0.01 95 989.6
20180920021603 51 5 1.0 3.0 0.00 0.05 0.01 95 989.7
20180920021105 51 5 1.0 5.0 0.00 0.05 0.01 95 989.7
20180920020604 51 5 4.0 7.0 0.00 0.05 0.01 94 989.6
20180920020104 52 5 1.0 3.0 0.01 0.05 0.01 94 989.9
20180920015604 52 5 2.0 5.0 0.01 0.05 0.01 94 990.1
20180920015104 52 5 2.0 6.0 0.01 0.05 0.01 94 990.4
20180920014604 52 5 2.0 6.0 0.01 0.05 0.01 93 990.6
20180920014104 52 5 3.0 3.0 0.01 0.05 0.01 93 990.7
20180920013604 52 5 5.0 7.0 0.01 0.05 0.01 93 990.7
20180920013104 52 5 5.0 8.0 0.01 0.05 0.01 93 990.8
20180920012604 52 5 4.0 9.0 0.01 0.05 0.01 93 990.9
20180920012104 52 5 3.0 12.0 0.01 0.05 0.01 93 991.0
20180920011604 52 5 4.0 8.0 0.01 0.05 0.01 93 991.0
20180920011104 52 5 3.0 9.0 0.01 0.05 0.01 93 991.2
20180920010604 52 5 6.0 10.0 0.01 0.05 0.01 93 991.3
20180920010104 52 5 5.0 8.0 0.00 0.04 0.00 93 991.4
20180920005604 52 5 4.0 8.0 0.00 0.04 0.00 94 991.4
20180920005104 52 5 2.0 6.0 0.00 0.04 0.00 94 991.6
20180920004604 52 5 5.0 8.0 0.00 0.04 0.00 94 991.9
20180920004104 52 5 3.0 9.0 0.00 0.04 0.00 94 992.1
20180920003604 52 5 5.0 9.0 0.00 0.04 0.00 94 992.4
20180920003104 50 5 2.0 0.0 0.00 0.04 0.00 97 993.9